Time;durP1;ratioP1;P1;durP2;ratioP2;P2;SDS_P1;SDS_P2;PMS_P1;PMS_P2;Temp;Humidity;BMP_temperature;BMP_pressure;BME280_temperature;BME280_humidity;BME280_pressure;Samples;Min_cycle;Max_cycle;Signal;HPM_P1;HPM_P2
2022/10/19 00:01:40;;;;;;;6.53;5.82;;;11.30;99.90;;;;;;5106070;28;20547;-63
2022/10/19 00:04:06;;;;;;;7.95;7.13;;;11.20;99.90;;;;;;5093706;28;20229;-63
2022/10/19 00:06:33;;;;;;;9.20;6.72;;;11.30;99.90;;;;;;5093548;28;20279;-63
2022/10/19 00:09:00;;;;;;;11.30;7.65;;;11.20;99.90;;;;;;5093622;28;20180;-63
2022/10/19 00:11:27;;;;;;;13.27;7.22;;;11.20;99.90;;;;;;5117874;27;20579;-63
2022/10/19 00:13:54;;;;;;;11.65;7.88;;;11.10;99.90;;;;;;5097248;28;20225;-63
2022/10/19 00:16:20;;;;;;;11.35;7.85;;;11.10;99.90;;;;;;5094166;28;20767;-63
2022/10/19 00:18:46;;;;;;;15.15;7.78;;;11.20;99.90;;;;;;5098575;28;20185;-64
2022/10/19 00:21:17;;;;;;;13.88;8.07;;;11.20;99.90;;;;;;5097334;28;20188;-64
2022/10/19 00:23:44;;;;;;;10.55;7.20;;;11.10;99.90;;;;;;5093787;28;20188;-63
2022/10/19 00:26:10;;;;;;;14.27;8.67;;;11.10;99.90;;;;;;5092954;28;20176;-63
2022/10/19 00:28:35;;;;;;;9.50;6.77;;;11.10;99.90;;;;;;5103062;28;20663;-63
2022/10/19 00:31:06;;;;;;;16.17;7.90;;;10.90;99.90;;;;;;5102407;28;20185;-63
2022/10/19 00:33:32;;;;;;;11.60;6.90;;;11.00;99.90;;;;;;5103759;28;20203;-63
2022/10/19 00:35:58;;;;;;;15.27;7.67;;;10.90;99.90;;;;;;5101057;28;20241;-62
2022/10/19 00:38:24;;;;;;;12.23;6.60;;;10.90;99.90;;;;;;5104151;28;20190;-62
2022/10/19 00:40:50;;;;;;;13.43;7.00;;;10.90;99.90;;;;;;5097538;28;20214;-62
2022/10/19 00:43:24;;;;;;;10.77;8.23;;;11.00;99.90;;;;;;5109698;28;20711;-63
2022/10/19 00:45:51;;;;;;;10.17;7.13;;;11.00;99.90;;;;;;5097807;28;20168;-63
2022/10/19 00:48:30;;;;;;;9.52;7.22;;;11.00;99.90;;;;;;5107709;28;20184;-63
2022/10/19 00:50:58;;;;;;;15.20;8.80;;;11.10;99.90;;;;;;5093740;28;20689;-63
2022/10/19 00:53:27;;;;;;;15.63;7.87;;;11.10;99.90;;;;;;5093961;28;20220;-63
2022/10/19 00:55:54;;;;;;;9.73;6.30;;;11.00;99.90;;;;;;5095676;28;20173;-62
2022/10/19 00:58:20;;;;;;;9.95;6.82;;;11.10;99.90;;;;;;5097977;28;20188;-63
2022/10/19 01:00:46;;;;;;;9.23;7.35;;;11.20;99.90;;;;;;5122735;27;20645;-62
2022/10/19 01:03:13;;;;;;;14.60;8.52;;;11.20;99.90;;;;;;5115935;28;20666;-63
2022/10/19 01:05:39;;;;;;;12.77;7.50;;;11.20;99.90;;;;;;5103561;28;20180;-63
2022/10/19 01:08:07;;;;;;;9.55;6.60;;;11.20;99.90;;;;;;5110962;28;20271;-63
2022/10/19 01:10:42;;;;;;;11.43;7.13;;;11.30;99.90;;;;;;5108618;28;20202;-63
2022/10/19 01:13:14;;;;;;;12.45;7.93;;;11.20;99.90;;;;;;5095554;28;20215;-63
2022/10/19 01:15:47;;;;;;;13.45;7.80;;;11.00;99.90;;;;;;5100772;28;20315;-62
2022/10/19 01:18:23;;;;;;;12.07;7.63;;;10.90;99.90;;;;;;5102629;28;20614;-63
2022/10/19 01:21:10;;;;;;;12.02;7.07;;;10.80;99.90;;;;;;5108581;28;20184;-63
2022/10/19 01:23:56;;;;;;;12.75;7.88;;;10.80;99.90;;;;;;5095118;28;20645;-63
2022/10/19 01:26:34;;;;;;;11.70;7.50;;;10.70;99.90;;;;;;5111661;28;20280;-63
2022/10/19 01:29:24;;;;;;;13.67;8.67;;;10.70;99.90;;;;;;5099475;28;20180;-62
2022/10/19 01:31:55;;;;;;;11.87;7.67;;;10.70;99.90;;;;;;5108462;28;20181;-63
2022/10/19 01:34:55;;;;;;;10.30;8.03;;;10.70;99.90;;;;;;5096217;28;20342;-63
2022/10/19 01:37:48;;;;;;;13.67;8.63;;;10.60;99.90;;;;;;5054233;28;20201;-63
2022/10/19 01:41:02;;;;;;;9.73;8.07;;;10.50;99.90;;;;;;5094769;28;20188;-63
2022/10/19 01:43:46;;;;;;;10.03;6.70;;;10.40;99.90;;;;;;5063017;28;20209;-63
2022/10/19 01:46:25;;;;;;;16.03;8.30;;;10.50;99.90;;;;;;5105369;28;20235;-63
2022/10/19 01:48:57;;;;;;;16.67;8.43;;;10.50;99.90;;;;;;5094678;28;21599;-63
2022/10/19 01:51:32;;;;;;;13.73;7.57;;;10.50;99.90;;;;;;5095791;28;20183;-63
2022/10/19 01:54:03;;;;;;;11.30;7.57;;;10.40;99.90;;;;;;5099448;28;20235;-63
2022/10/19 01:56:31;;;;;;;12.33;7.80;;;10.40;99.90;;;;;;5096104;28;20181;-62
2022/10/19 01:59:00;;;;;;;14.57;8.93;;;10.30;99.90;;;;;;5095153;28;20192;-63
2022/10/19 02:01:29;;;;;;;12.00;7.83;;;10.30;99.90;;;;;;5096007;28;20185;-62
2022/10/19 02:03:57;;;;;;;11.00;7.83;;;10.30;99.90;;;;;;5098371;28;20241;-63
2022/10/19 02:06:23;;;;;;;15.37;7.90;;;10.40;99.90;;;;;;5105955;28;20185;-63
2022/10/19 02:08:52;;;;;;;13.93;7.90;;;10.40;99.90;;;;;;5095462;28;20191;-63
2022/10/19 02:11:19;;;;;;;11.27;7.40;;;10.30;99.90;;;;;;5101944;28;20195;-63
2022/10/19 02:13:50;;;;;;;11.57;9.30;;;10.30;99.90;;;;;;5101619;28;20220;-63
2022/10/19 02:16:31;;;;;;;12.87;8.17;;;10.30;99.90;;;;;;5102811;28;20184;-63
2022/10/19 02:18:57;;;;;;;13.60;8.53;;;10.30;99.90;;;;;;5102750;28;20188;-63
2022/10/19 02:21:24;;;;;;;9.80;7.43;;;10.20;99.90;;;;;;5101504;28;20645;-62
2022/10/19 02:23:50;;;;;;;12.47;7.50;;;10.20;99.90;;;;;;5102782;28;20195;-63
2022/10/19 02:26:16;;;;;;;14.50;8.07;;;10.20;99.90;;;;;;5104657;28;20271;-63
2022/10/19 02:28:41;;;;;;;12.30;8.13;;;10.20;99.90;;;;;;5108881;28;20586;-63
2022/10/19 02:31:08;;;;;;;12.47;7.83;;;10.20;99.90;;;;;;5098520;28;20612;-63
2022/10/19 02:33:35;;;;;;;9.27;7.33;;;10.20;99.90;;;;;;5099692;28;20219;-62
2022/10/19 02:36:01;;;;;;;12.33;7.97;;;10.20;99.90;;;;;;5104439;28;20185;-63
2022/10/19 02:38:27;;;;;;;11.93;8.33;;;10.10;99.90;;;;;;5093076;28;20189;-63
2022/10/19 02:41:03;;;;;;;12.50;8.13;;;10.20;99.90;;;;;;5094700;28;20237;-63
2022/10/19 02:43:32;;;;;;;13.10;8.23;;;10.30;99.90;;;;;;5097226;28;20188;-62
2022/10/19 02:46:47;;;;;;;12.40;9.23;;;10.20;99.90;;;;;;5107392;28;20216;-62
2022/10/19 02:49:14;;;;;;;12.03;7.70;;;10.20;99.90;;;;;;5085471;28;20230;-63
2022/10/19 02:52:03;;;;;;;11.17;7.87;;;10.20;99.90;;;;;;5127236;27;20180;-63
2022/10/19 02:54:29;;;;;;;10.80;7.43;;;10.30;99.90;;;;;;5094619;28;20550;-63
2022/10/19 02:56:55;;;;;;;11.83;7.90;;;10.30;99.90;;;;;;5095037;28;20187;-63
2022/10/19 02:59:21;;;;;;;13.13;8.93;;;10.30;99.90;;;;;;5110303;28;20196;-62
2022/10/19 03:01:46;;;;;;;13.13;7.63;;;10.20;99.90;;;;;;5108922;28;20280;-63
2022/10/19 03:04:12;;;;;;;13.53;7.77;;;10.20;99.90;;;;;;5096961;28;20659;-63
2022/10/19 03:06:38;;;;;;;15.67;8.30;;;10.20;99.90;;;;;;5094551;28;20238;-63
2022/10/19 03:09:03;;;;;;;11.90;7.83;;;10.10;99.90;;;;;;5098890;28;20203;-62
2022/10/19 03:11:29;;;;;;;11.67;7.73;;;10.10;99.90;;;;;;5093171;28;20228;-63
2022/10/19 03:13:55;;;;;;;16.23;8.17;;;10.10;99.90;;;;;;5097358;28;20215;-63
2022/10/19 03:16:21;;;;;;;9.97;8.43;;;10.10;99.90;;;;;;5100981;28;20218;-63
2022/10/19 03:18:50;;;;;;;11.93;8.13;;;10.20;99.90;;;;;;5094663;28;20671;-63
2022/10/19 03:21:17;;;;;;;12.63;7.77;;;10.10;99.90;;;;;;5094806;28;20255;-62
2022/10/19 03:23:42;;;;;;;9.43;6.67;;;10.00;99.90;;;;;;5094134;28;20188;-62
2022/10/19 03:26:13;;;;;;;13.03;7.37;;;9.90;99.90;;;;;;5092870;28;20260;-62
2022/10/19 03:28:38;;;;;;;12.07;7.03;;;9.80;99.90;;;;;;5094155;28;20183;-63
2022/10/19 03:31:04;;;;;;;9.97;7.70;;;9.80;99.90;;;;;;5093903;28;20196;-63
2022/10/19 03:33:30;;;;;;;21.47;7.87;;;9.80;99.90;;;;;;5098904;28;20302;-63
2022/10/19 03:36:19;;;;;;;14.77;8.03;;;9.90;99.90;;;;;;5119399;27;20183;-63
2022/10/19 03:38:46;;;;;;;10.90;7.17;;;9.90;99.90;;;;;;5103759;28;20668;-63
2022/10/19 03:41:12;;;;;;;12.23;7.60;;;9.90;99.90;;;;;;5106219;28;20240;-63
2022/10/19 03:43:37;;;;;;;13.37;8.53;;;9.80;99.90;;;;;;5095499;27;20199;-62
2022/10/19 03:46:03;;;;;;;13.33;7.47;;;9.80;99.90;;;;;;5092498;28;20192;-63
2022/10/19 03:48:29;;;;;;;10.67;7.73;;;9.80;99.90;;;;;;5104088;28;20192;-63
2022/10/19 03:51:00;;;;;;;10.50;7.10;;;9.80;99.90;;;;;;5093875;28;20261;-63
2022/10/19 03:53:26;;;;;;;13.43;8.57;;;9.80;99.90;;;;;;5107643;28;20666;-64
2022/10/19 03:55:51;;;;;;;9.13;7.07;;;9.80;99.90;;;;;;5092752;28;20188;-63
2022/10/19 03:58:17;;;;;;;12.93;7.73;;;9.70;99.90;;;;;;5100719;28;20215;-63
2022/10/19 04:00:43;;;;;;;12.70;8.23;;;9.80;99.90;;;;;;5100168;28;20202;-62
2022/10/19 04:03:08;;;;;;;16.00;7.67;;;9.80;99.90;;;;;;5093812;28;20660;-63
2022/10/19 04:05:34;;;;;;;11.83;7.90;;;9.70;99.90;;;;;;5092232;28;20188;-62
2022/10/19 04:07:59;;;;;;;11.07;7.57;;;9.70;99.90;;;;;;5123925;27;20267;-62
2022/10/19 04:10:25;;;;;;;11.40;8.03;;;9.80;99.90;;;;;;5104409;28;20204;-63
2022/10/19 04:12:51;;;;;;;15.40;7.43;;;9.80;99.90;;;;;;5092472;28;20617;-62
2022/10/19 04:15:16;;;;;;;12.77;8.30;;;9.80;99.90;;;;;;5094776;28;20266;-63
2022/10/19 04:17:42;;;;;;;14.90;7.00;;;9.70;99.90;;;;;;5100199;28;20690;-63
2022/10/19 04:20:08;;;;;;;13.37;8.40;;;9.80;99.90;;;;;;5111784;28;20190;-63
2022/10/19 04:22:34;;;;;;;12.33;7.73;;;9.70;99.90;;;;;;5093608;28;20188;-62
2022/10/19 04:24:59;;;;;;;15.03;8.00;;;9.90;99.90;;;;;;5091671;28;20180;-62
2022/10/19 04:27:25;;;;;;;14.23;8.87;;;10.10;99.90;;;;;;5092447;28;20589;-63
2022/10/19 04:29:50;;;;;;;11.30;7.97;;;10.20;99.90;;;;;;5091992;28;20521;-63
2022/10/19 04:32:16;;;;;;;12.37;8.40;;;9.90;99.90;;;;;;5097300;28;20325;-62
2022/10/19 04:34:42;;;;;;;17.10;10.17;;;9.80;99.90;;;;;;5093201;28;20219;-63
2022/10/19 04:37:07;;;;;;;12.80;9.40;;;9.70;99.90;;;;;;5093070;28;20193;-62
2022/10/19 04:39:33;;;;;;;13.50;8.23;;;9.70;99.90;;;;;;5099841;28;20180;-62
2022/10/19 04:41:59;;;;;;;16.77;9.10;;;9.60;99.90;;;;;;5110797;27;20184;-62
2022/10/19 04:44:24;;;;;;;20.80;9.73;;;9.60;99.90;;;;;;5103143;28;20203;-63
2022/10/19 04:46:50;;;;;;;16.97;9.90;;;9.60;99.90;;;;;;5092855;28;20180;-63
2022/10/19 04:49:16;;;;;;;14.43;9.70;;;9.60;99.90;;;;;;5108623;27;20770;-62
2022/10/19 04:51:41;;;;;;;15.43;10.67;;;9.70;99.90;;;;;;5089651;28;20191;-62
2022/10/19 04:54:07;;;;;;;19.77;10.93;;;9.70;99.90;;;;;;5096073;28;20240;-62
2022/10/19 04:56:33;;;;;;;20.57;10.20;;;9.60;99.90;;;;;;5103824;28;20644;-63
2022/10/19 04:58:59;;;;;;;17.60;9.97;;;9.50;99.90;;;;;;5097901;28;20249;-62
2022/10/19 05:01:27;;;;;;;13.17;9.27;;;9.60;99.90;;;;;;5098933;28;20194;-62
2022/10/19 05:04:01;;;;;;;15.63;10.57;;;9.60;99.90;;;;;;5084459;28;20194;-63
2022/10/19 05:06:27;;;;;;;16.07;10.70;;;9.70;99.90;;;;;;5100678;28;20180;-63
2022/10/19 05:08:53;;;;;;;23.40;11.70;;;9.70;99.90;;;;;;5104474;28;20280;-63
2022/10/19 05:11:19;;;;;;;16.03;11.07;;;9.60;99.90;;;;;;5099063;28;20278;-63
2022/10/19 05:13:45;;;;;;;13.67;10.43;;;9.50;99.90;;;;;;5093004;28;20732;-62
2022/10/19 05:16:14;;;;;;;18.73;12.47;;;9.50;99.90;;;;;;5100230;28;20188;-62
2022/10/19 05:18:40;;;;;;;20.03;12.23;;;9.50;99.90;;;;;;5099707;28;20173;-63
2022/10/19 05:21:13;;;;;;;16.80;11.67;;;9.50;99.90;;;;;;5092739;28;20196;-64
2022/10/19 05:23:40;;;;;;;15.67;10.40;;;9.50;99.90;;;;;;5099686;28;20188;-64
2022/10/19 05:26:11;;;;;;;20.97;10.97;;;9.40;99.90;;;;;;5092232;28;20216;-63
2022/10/19 05:28:37;;;;;;;15.37;10.83;;;9.40;99.90;;;;;;5092805;28;20275;-62
2022/10/19 05:31:12;;;;;;;22.97;12.20;;;9.50;99.90;;;;;;5109637;27;20322;-63
2022/10/19 05:33:38;;;;;;;20.97;11.33;;;9.60;99.90;;;;;;5104410;28;20208;-62
2022/10/19 05:36:28;;;;;;;21.37;12.30;;;9.60;99.90;;;;;;5106462;28;20187;-64
2022/10/19 05:38:56;;;;;;;18.03;10.97;;;9.50;99.90;;;;;;5092944;28;20196;-62
2022/10/19 05:41:24;;;;;;;22.90;13.03;;;9.50;99.90;;;;;;5103553;28;20184;-63
2022/10/19 05:43:57;;;;;;;18.50;12.30;;;9.40;99.90;;;;;;5096618;28;20185;-62
2022/10/19 05:46:24;;;;;;;19.63;11.73;;;9.40;99.90;;;;;;5097012;28;20184;-64
2022/10/19 05:48:50;;;;;;;19.67;11.60;;;9.30;99.90;;;;;;5096289;28;20185;-63
2022/10/19 05:51:18;;;;;;;18.53;11.77;;;9.40;99.90;;;;;;5096101;28;20727;-63
2022/10/19 05:53:44;;;;;;;21.83;13.60;;;9.30;99.90;;;;;;5097248;28;20644;-63
2022/10/19 05:56:17;;;;;;;18.17;13.27;;;9.30;99.90;;;;;;5095742;28;20216;-63
2022/10/19 05:58:43;;;;;;;22.23;12.80;;;9.30;99.90;;;;;;5096125;28;20535;-64
2022/10/19 06:01:09;;;;;;;19.07;12.77;;;9.30;99.90;;;;;;5095248;28;20189;-63
2022/10/19 06:03:35;;;;;;;16.67;13.23;;;9.30;99.90;;;;;;5095084;28;20668;-63
2022/10/19 06:06:03;;;;;;;16.97;12.50;;;9.30;99.90;;;;;;5095895;28;20677;-63
2022/10/19 06:08:28;;;;;;;21.60;13.17;;;9.30;99.90;;;;;;5102924;28;20191;-64
2022/10/19 06:11:07;;;;;;;18.43;11.80;;;9.50;99.90;;;;;;5080498;28;20196;-63
2022/10/19 06:13:33;;;;;;;15.20;11.30;;;9.50;99.90;;;;;;5112114;27;20205;-64
2022/10/19 06:15:59;;;;;;;20.80;12.43;;;9.70;99.90;;;;;;5106609;28;20712;-63
2022/10/19 06:18:24;;;;;;;19.03;13.30;;;9.50;99.90;;;;;;5103309;28;20181;-64
2022/10/19 06:20:51;;;;;;;18.17;12.63;;;9.40;99.90;;;;;;5095182;28;20522;-64
2022/10/19 06:23:17;;;;;;;21.33;13.60;;;9.50;99.90;;;;;;5095454;28;20244;-63
2022/10/19 06:25:43;;;;;;;20.60;12.37;;;9.40;99.90;;;;;;5114164;27;20180;-63
2022/10/19 06:28:09;;;;;;;23.53;13.27;;;9.30;99.90;;;;;;5100974;28;20176;-64
2022/10/19 06:30:39;;;;;;;22.73;11.77;;;9.20;99.90;;;;;;5117833;27;20184;-64
2022/10/19 06:33:05;;;;;;;19.33;13.20;;;9.20;99.90;;;;;;5103400;28;20192;-63
2022/10/19 06:35:31;;;;;;;18.73;11.67;;;9.30;99.90;;;;;;5104993;27;20272;-63
2022/10/19 06:37:56;;;;;;;21.03;13.77;;;9.40;99.90;;;;;;5095079;28;20275;-63
2022/10/19 06:40:23;;;;;;;21.03;13.00;;;9.60;99.90;;;;;;5099178;28;20752;-63
2022/10/19 06:42:49;;;;;;;20.97;13.43;;;9.70;99.90;;;;;;5110091;28;20192;-63
2022/10/19 06:45:15;;;;;;;21.57;12.83;;;9.70;99.90;;;;;;5111990;28;20547;-63
2022/10/19 06:47:41;;;;;;;20.27;11.77;;;9.80;99.90;;;;;;5111565;28;20299;-63
2022/10/19 06:50:07;;;;;;;18.77;11.83;;;9.70;99.90;;;;;;5097140;28;20212;-62
2022/10/19 06:52:34;;;;;;;22.60;13.30;;;9.60;99.90;;;;;;5094709;28;20766;-62
2022/10/19 06:55:00;;;;;;;19.23;12.90;;;9.50;99.90;;;;;;5110139;27;20572;-62
2022/10/19 06:57:26;;;;;;;18.10;13.33;;;9.40;99.90;;;;;;5094838;27;20193;-62
2022/10/19 06:59:51;;;;;;;19.20;13.30;;;9.50;99.90;;;;;;5094466;28;20241;-63
2022/10/19 07:02:17;;;;;;;25.27;14.13;;;9.40;99.90;;;;;;5098564;28;20193;-62
2022/10/19 07:04:42;;;;;;;26.07;13.73;;;9.40;99.90;;;;;;5101425;28;20284;-62
2022/10/19 07:07:08;;;;;;;27.07;13.90;;;9.50;99.90;;;;;;5095966;28;20246;-63
2022/10/19 07:09:34;;;;;;;24.33;13.87;;;9.50;99.90;;;;;;5101289;28;20192;-62
2022/10/19 07:11:59;;;;;;;21.60;15.07;;;9.70;99.90;;;;;;5094028;28;20200;-62
2022/10/19 07:14:27;;;;;;;29.00;16.43;;;10.00;99.90;;;;;;5093119;28;20645;-62
2022/10/19 07:16:53;;;;;;;23.93;16.53;;;10.40;99.90;;;;;;5095041;28;20177;-62
2022/10/19 07:19:19;;;;;;;26.30;14.90;;;10.90;99.90;;;;;;5092701;28;20188;-62
2022/10/19 07:21:48;;;;;;;28.70;15.15;;;11.30;99.90;;;;;;5108413;28;20191;-62
2022/10/19 07:24:14;;;;;;;24.73;14.85;;;11.60;99.90;;;;;;5098493;28;20271;-62
2022/10/19 07:26:40;;;;;;;23.10;14.55;;;11.70;99.90;;;;;;5094317;28;20267;-62
2022/10/19 07:29:06;;;;;;;25.67;15.20;;;12.10;99.90;;;;;;5115144;27;20283;-63
2022/10/19 07:31:31;;;;;;;25.67;16.70;;;12.50;99.90;;;;;;5102675;28;20188;-63
2022/10/19 07:34:02;;;;;;;26.75;16.92;;;13.10;99.90;;;;;;5108464;28;20695;-63
2022/10/19 07:36:30;;;;;;;23.55;13.57;;;13.80;99.90;;;;;;5099628;28;20232;-63
2022/10/19 07:38:56;;;;;;;30.60;13.80;;;14.30;99.90;;;;;;5103485;28;20688;-62
2022/10/19 07:41:24;;;;;;;18.33;12.18;;;14.60;99.90;;;;;;5108007;28;20207;-63
2022/10/19 07:43:51;;;;;;;16.58;12.38;;;14.80;99.90;;;;;;5112328;28;20184;-62
2022/10/19 07:46:19;;;;;;;17.27;11.63;;;14.60;99.90;;;;;;5105328;28;20183;-62
2022/10/19 07:48:45;;;;;;;21.70;12.57;;;14.90;99.90;;;;;;5096111;28;20188;-63
2022/10/19 07:51:12;;;;;;;15.63;11.27;;;15.00;99.90;;;;;;5093353;28;20185;-62
2022/10/19 07:53:38;;;;;;;14.02;9.77;;;14.80;99.90;;;;;;5093480;28;20207;-63
2022/10/19 07:56:05;;;;;;;21.10;11.43;;;14.20;99.90;;;;;;5093520;28;20641;-63
2022/10/19 07:58:30;;;;;;;17.23;11.15;;;13.90;99.90;;;;;;5093929;28;20230;-64
2022/10/19 08:01:23;;;;;;;16.80;11.07;;;13.10;99.90;;;;;;5103323;28;20188;-62
2022/10/19 08:03:52;;;;;;;16.55;10.07;;;12.60;99.90;;;;;;5090144;28;20203;-63
2022/10/19 08:06:18;;;;;;;13.88;10.57;;;12.30;99.90;;;;;;5105296;28;20191;-63
2022/10/19 08:08:45;;;;;;;17.42;12.50;;;12.30;99.90;;;;;;5108995;28;20184;-64
2022/10/19 08:11:24;;;;;;;18.20;12.02;;;11.90;99.90;;;;;;5092258;28;20596;-62
2022/10/19 08:13:50;;;;;;;14.73;11.63;;;11.70;99.90;;;;;;5096937;28;20203;-62
2022/10/19 08:16:19;;;;;;;15.65;11.32;;;11.50;99.90;;;;;;5108611;28;20215;-62
2022/10/19 08:18:45;;;;;;;14.00;10.55;;;11.70;99.90;;;;;;5096064;28;20234;-62
2022/10/19 08:21:11;;;;;;;18.15;11.23;;;11.80;99.90;;;;;;5092526;28;20188;-62
2022/10/19 08:23:37;;;;;;;14.95;11.57;;;12.00;99.90;;;;;;5092333;28;20271;-62
2022/10/19 08:26:02;;;;;;;15.23;11.20;;;12.10;99.90;;;;;;5104314;28;20180;-62
2022/10/19 08:28:28;;;;;;;19.13;12.07;;;12.20;99.90;;;;;;5093246;28;20284;-62
2022/10/19 08:30:57;;;;;;;22.58;13.82;;;12.10;99.90;;;;;;5098834;28;20215;-62
2022/10/19 08:33:24;;;;;;;22.02;12.93;;;11.80;99.90;;;;;;5097580;28;20273;-62
2022/10/19 08:35:50;;;;;;;22.45;11.90;;;11.50;99.90;;;;;;5091550;28;20263;-61
2022/10/19 08:38:16;;;;;;;22.50;12.52;;;11.60;99.90;;;;;;5091818;28;20276;-62
2022/10/19 08:40:44;;;;;;;20.48;12.27;;;11.60;99.90;;;;;;5093195;28;20682;-64
2022/10/19 08:43:28;;;;;;;19.42;11.70;;;11.70;99.90;;;;;;5093094;28;20179;-62
2022/10/19 08:46:02;;;;;;;15.30;10.90;;;11.70;99.90;;;;;;5092812;28;20654;-62
2022/10/19 08:48:35;;;;;;;19.25;11.50;;;11.80;99.90;;;;;;5093565;28;20221;-62
2022/10/19 08:51:04;;;;;;;21.27;12.80;;;12.00;99.90;;;;;;5091163;28;20238;-62
2022/10/19 08:53:57;;;;;;;19.10;11.20;;;11.90;99.90;;;;;;5093082;28;20180;-62
2022/10/19 08:56:24;;;;;;;20.40;13.63;;;11.80;99.90;;;;;;5089118;28;20557;-62
2022/10/19 08:59:11;;;;;;;17.77;11.52;;;11.90;99.90;;;;;;5101625;28;20697;-62
2022/10/19 09:01:57;;;;;;;19.85;11.13;;;12.00;99.90;;;;;;5110152;27;20177;-65
2022/10/19 09:04:29;;;;;;;14.02;9.63;;;12.10;99.90;;;;;;5094459;28;20185;-61
2022/10/19 09:07:16;;;;;;;23.17;10.27;;;12.10;99.90;;;;;;5093733;28;20656;-62
2022/10/19 09:09:45;;;;;;;15.90;9.65;;;12.20;99.90;;;;;;5106574;28;20191;-62
2022/10/19 09:12:16;;;;;;;18.27;10.98;;;12.20;99.90;;;;;;5105564;28;20227;-62
2022/10/19 09:15:00;;;;;;;16.52;10.85;;;12.10;99.90;;;;;;5103288;28;20211;-62
2022/10/19 09:17:27;;;;;;;16.50;9.23;;;12.00;99.90;;;;;;5102352;28;20183;-62
2022/10/19 09:19:53;;;;;;;17.65;9.73;;;12.10;99.90;;;;;;5111185;28;20243;-62
2022/10/19 09:22:27;;;;;;;14.23;9.00;;;12.30;99.90;;;;;;5106955;28;20184;-62
2022/10/19 09:25:12;;;;;;;15.25;9.73;;;12.40;99.90;;;;;;5097911;28;20184;-63
2022/10/19 09:27:40;;;;;;;15.45;9.07;;;12.30;99.90;;;;;;5099959;28;20267;-62
2022/10/19 09:30:17;;;;;;;13.25;7.75;;;12.30;99.90;;;;;;5095612;28;20188;-62
2022/10/19 09:32:43;;;;;;;14.93;8.15;;;12.50;99.90;;;;;;5103629;28;20180;-62
2022/10/19 09:35:37;;;;;;;10.07;7.03;;;12.80;99.90;;;;;;5104151;28;20289;-62
2022/10/19 09:38:06;;;;;;;11.45;7.28;;;12.70;99.90;;;;;;5106827;28;20668;-62
2022/10/19 09:40:33;;;;;;;19.20;8.20;;;12.70;99.90;;;;;;5095886;28;20188;-62
2022/10/19 09:43:07;;;;;;;18.42;7.45;;;12.90;99.90;;;;;;5097712;28;20208;-63
2022/10/19 09:45:56;;;;;;;14.00;7.20;;;12.90;99.90;;;;;;5095253;28;20197;-62
2022/10/19 09:48:41;;;;;;;14.18;7.15;;;12.90;99.90;;;;;;5101582;28;20656;-62
2022/10/19 09:51:12;;;;;;;12.52;6.28;;;13.20;99.90;;;;;;5096086;28;20218;-63
2022/10/19 09:53:53;;;;;;;11.30;6.80;;;13.30;99.90;;;;;;5104836;28;20176;-62
2022/10/19 09:56:24;;;;;;;12.70;7.00;;;13.50;99.90;;;;;;5095241;28;20172;-62
2022/10/19 09:58:58;;;;;;;11.40;6.18;;;13.90;99.90;;;;;;5096364;28;20179;-62
2022/10/19 10:01:31;;;;;;;9.93;6.18;;;13.80;99.90;;;;;;5100406;28;20177;-62
2022/10/19 10:04:08;;;;;;;13.07;5.78;;;13.70;99.90;;;;;;5095867;28;20253;-62
2022/10/19 10:06:34;;;;;;;8.80;5.93;;;13.70;99.90;;;;;;5096033;28;20204;-62
2022/10/19 10:09:00;;;;;;;8.80;5.65;;;13.70;99.90;;;;;;5116977;27;20188;-62
2022/10/19 10:11:38;;;;;;;9.52;6.38;;;13.70;99.90;;;;;;5112772;28;20211;-63
2022/10/19 10:14:23;;;;;;;8.95;5.50;;;14.00;99.90;;;;;;5096454;28;20208;-63
2022/10/19 10:17:01;;;;;;;9.43;5.85;;;14.10;99.90;;;;;;5104826;28;20505;-62
2022/10/19 10:19:30;;;;;;;10.77;5.50;;;14.20;99.90;;;;;;5096112;28;20211;-63
2022/10/19 10:21:57;;;;;;;10.98;6.47;;;14.20;99.90;;;;;;5109488;28;20308;-62
2022/10/19 10:24:26;;;;;;;12.80;6.63;;;14.20;99.90;;;;;;5107830;28;20224;-63
2022/10/19 10:26:58;;;;;;;7.93;5.45;;;14.30;99.90;;;;;;5092967;28;20192;-63
2022/10/19 10:29:25;;;;;;;7.85;6.18;;;14.40;99.90;;;;;;5101762;28;20637;-62
2022/10/19 10:32:18;;;;;;;9.32;5.85;;;14.40;99.90;;;;;;5109784;28;20176;-63
2022/10/19 10:34:45;;;;;;;9.38;5.63;;;14.70;99.90;;;;;;5087661;28;20216;-62
2022/10/19 10:37:26;;;;;;;12.77;6.28;;;14.50;99.90;;;;;;5107636;28;20199;-63
2022/10/19 10:39:54;;;;;;;10.02;6.53;;;14.50;99.90;;;;;;5111406;28;20652;-63
2022/10/19 10:42:41;;;;;;;7.32;4.82;;;14.60;99.90;;;;;;5106861;28;20191;-62
2022/10/19 10:45:22;;;;;;;8.93;5.00;;;14.90;99.90;;;;;;5097261;28;20219;-63
2022/10/19 10:47:48;;;;;;;12.50;5.03;;;15.10;99.90;;;;;;5104269;28;20255;-62
2022/10/19 10:50:30;;;;;;;9.10;5.50;;;15.00;99.90;;;;;;5114084;28;20187;-64
2022/10/19 10:53:01;;;;;;;11.27;6.00;;;14.90;99.90;;;;;;5103057;28;20198;-63
2022/10/19 10:55:28;;;;;;;13.32;5.72;;;15.00;99.90;;;;;;5095863;28;20209;-63
2022/10/19 10:58:14;;;;;;;9.05;4.70;;;15.20;99.90;;;;;;5096560;28;20226;-62
2022/10/19 11:00:40;;;;;;;11.50;5.72;;;15.30;99.90;;;;;;5094874;28;20533;-64
2022/10/19 11:03:22;;;;;;;11.00;4.90;;;15.50;99.90;;;;;;5094753;28;20184;-63
2022/10/19 11:05:55;;;;;;;6.70;4.60;;;15.40;99.90;;;;;;5107683;28;20168;-63
2022/10/19 11:08:48;;;;;;;8.32;5.68;;;15.50;99.90;;;;;;5077199;28;20245;-63
2022/10/19 11:11:21;;;;;;;8.73;5.20;;;15.50;99.90;;;;;;5094279;28;20283;-63
2022/10/19 11:14:15;;;;;;;9.10;5.28;;;15.70;99.90;;;;;;5094631;28;20259;-63
2022/10/19 11:16:44;;;;;;;9.05;5.28;;;15.60;99.90;;;;;;5095513;28;20548;-63
2022/10/19 11:19:18;;;;;;;8.70;5.68;;;15.80;99.90;;;;;;5105297;28;20641;-64
2022/10/19 11:22:01;;;;;;;10.60;5.65;;;15.80;99.90;;;;;;5105249;28;20187;-64
2022/10/19 11:25:08;;;;;;;6.93;4.78;;;15.90;99.90;;;;;;5093782;28;20176;-64
2022/10/19 11:27:39;;;;;;;12.70;5.93;;;16.00;99.90;;;;;;5093236;28;20185;-64
2022/10/19 11:30:12;;;;;;;10.23;5.85;;;16.30;99.90;;;;;;5094273;28;20203;-63
2022/10/19 11:32:51;;;;;;;9.20;5.82;;;16.40;99.90;;;;;;5096719;28;20204;-64
2022/10/19 11:35:41;;;;;;;8.32;5.50;;;16.40;99.90;;;;;;5104394;28;20239;-64
2022/10/19 11:38:19;;;;;;;9.98;5.03;;;16.40;99.90;;;;;;5096960;28;20177;-63
2022/10/19 11:41:01;;;;;;;11.90;6.43;;;16.50;99.90;;;;;;5101705;28;20184;-63
2022/10/19 11:44:06;;;;;;;10.88;6.20;;;16.50;99.90;;;;;;5099316;28;20185;-62
2022/10/19 11:47:00;;;;;;;9.82;5.63;;;16.60;99.90;;;;;;5105962;28;20183;-63
2022/10/19 11:49:44;;;;;;;11.18;6.18;;;16.50;99.90;;;;;;5099404;28;20184;-63
2022/10/19 11:52:21;;;;;;;8.25;5.13;;;16.20;99.90;;;;;;5099633;28;20192;-63
2022/10/19 11:54:53;;;;;;;9.13;5.75;;;16.10;99.90;;;;;;5101368;28;20684;-64
2022/10/19 11:57:32;;;;;;;9.00;6.03;;;16.30;99.90;;;;;;5100629;28;20184;-63
2022/10/19 12:00:11;;;;;;;6.57;5.25;;;16.40;99.90;;;;;;5094050;28;20218;-63
2022/10/19 12:03:13;;;;;;;12.57;5.78;;;16.40;99.90;;;;;;5093975;28;20606;-64
2022/10/19 12:05:52;;;;;;;11.05;6.80;;;16.60;99.90;;;;;;5096574;28;20637;-65
2022/10/19 12:08:47;;;;;;;13.35;6.60;;;16.50;99.90;;;;;;5105976;28;20180;-64
2022/10/19 12:11:42;;;;;;;9.68;5.97;;;16.60;99.90;;;;;;5099149;28;20204;-64
2022/10/19 12:14:17;;;;;;;7.68;5.85;;;16.80;99.90;;;;;;5097465;28;20232;-65
2022/10/19 12:16:48;;;;;;;11.15;5.75;;;16.90;99.90;;;;;;5105850;28;20187;-63
2022/10/19 12:19:20;;;;;;;11.52;7.32;;;16.80;99.90;;;;;;5110138;28;20208;-64
2022/10/19 12:21:47;;;;;;;10.45;6.18;;;16.70;99.90;;;;;;5100996;28;20641;-64
2022/10/19 12:24:17;;;;;;;7.07;5.25;;;16.80;99.90;;;;;;5103174;28;20192;-63
2022/10/19 12:26:44;;;;;;;10.65;5.00;;;16.70;99.90;;;;;;5099740;28;20562;-64
2022/10/19 12:29:40;;;;;;;7.00;5.07;;;16.80;99.90;;;;;;5096289;28;20176;-63
2022/10/19 12:32:09;;;;;;;13.05;5.20;;;17.10;99.90;;;;;;5099934;28;20200;-64
2022/10/19 12:34:35;;;;;;;9.77;5.93;;;17.20;99.90;;;;;;5099276;28;20265;-64
2022/10/19 12:37:28;;;;;;;7.88;4.57;;;17.30;99.90;;;;;;5093083;28;20180;-64
2022/10/19 12:40:07;;;;;;;13.27;4.78;;;17.70;99.90;;;;;;5095038;28;20649;-64
2022/10/19 12:42:50;;;;;;;10.68;5.30;;;17.80;99.90;;;;;;5093996;28;20218;-63
2022/10/19 12:45:30;;;;;;;10.18;4.90;;;17.60;99.90;;;;;;5092884;28;20188;-64
2022/10/19 12:48:09;;;;;;;6.18;4.25;;;17.60;99.90;;;;;;5101519;28;20192;-62
2022/10/19 12:51:00;;;;;;;8.10;5.15;;;17.40;99.90;;;;;;5092181;28;20179;-63
2022/10/19 12:53:39;;;;;;;10.77;5.38;;;17.50;99.90;;;;;;5093105;28;20191;-64
2022/10/19 12:56:14;;;;;;;7.50;4.75;;;17.40;99.90;;;;;;5101141;28;20196;-63
2022/10/19 12:58:42;;;;;;;11.73;5.13;;;17.40;99.90;;;;;;5096216;28;20183;-64
2022/10/19 13:01:17;;;;;;;9.25;5.43;;;17.60;99.90;;;;;;5108858;28;20184;-63